KCRS/CRS METAR and TAF weather

Enter ICAO airport designator
Station Type Date Time Source
KCRS METAR 2022/01/26 06:53 UTC NOAA

KCRS 260653Z AUTO 01006KT 10SM CLR 04/02 A3029 RMK AO2 SLP258 T00440017


Station Type Date Time Source
KCRS Decoded METAR 2022/01/26 06:53 UTC NOAA

CORSICANA AIRFIELD, TX, United States (KCRS) 32-01N 96-23W 133M
Jan 26, 2022 - 01:53 AM EST / 2022.01.26 0653 UTC
Wind: from the N (010 degrees) at 7 MPH (6 KT):0
Visibility: 10 mile(s):0
Sky conditions: clear
Temperature: 39.9 F (4.4 C)
Dew Point: 35.1 F (1.7 C)
Relative Humidity: 82%
Pressure (altimeter): 30.29 in. Hg (1025 hPa)
ob: KCRS 260653Z AUTO 01006KT 10SM CLR 04/02 A3029 RMK AO2 SLP258 T00440017
cycle: 7

Station Type Date Time Source
KCRS TAF UTC NOAA

Error!

Example: see airport list